Berlin, New Hampshire
Current Conditions -  °F | °C
As of 4:52 PM on Monday 22 Dec 2014 (Local Time) from KBML Reporting Station
Overcast Overcast  
Wind Chill: 26°   Ceiling: 3700
Heat Index: 32°   Visibility: 10mi
Dew Point: 24°   Wind: 7mph
Humidity: 73%   Direction: 170°S
Pressure: 30.31"   Gusts: NA
Location:  44.47°N, 71.18°W
Report Text: KBML 222152Z AUTO 17006KT 10SM OVC037 00/M04 A3031 RMK AO2 SLP280 T00001044
Loading
Personal Weather Stations






























Interactive Weather Map New forecast layout! Learn more

10-Day Weather Forecast

Advertisements
Track Severe Weather on mobile